Time;durP1;ratioP1;P1;durP2;ratioP2;P2;SDS_P1;SDS_P2;PMS_P1;PMS_P2;Temp;Humidity;BMP_temperature;BMP_pressure;BME280_temperature;BME280_humidity;BME280_pressure;Samples;Min_cycle;Max_cycle;Signal;HPM_P1;HPM_P2
2021/11/22 00:00:52;;;;;;;76.63;71.85;;;;;;;;;;4969378;28;20029;-72
2021/11/22 00:03:18;;;;;;;76.53;71.68;;;;;;;;;;4971276;28;20057;-73
2021/11/22 00:05:44;;;;;;;76.00;72.10;;;;;;;;;;4970554;28;20030;-72
2021/11/22 00:08:10;;;;;;;79.68;74.68;;;;;;;;;;4966868;28;20396;-73
2021/11/22 00:10:37;;;;;;;78.25;74.10;;;;;;;;;;4953713;28;20038;-71
2021/11/22 00:13:03;;;;;;;81.25;76.75;;;;;;;;;;4970713;28;20054;-73
2021/11/22 00:15:29;;;;;;;78.88;74.72;;;;;;;;;;4972822;28;20035;-73
2021/11/22 00:17:55;;;;;;;79.47;75.00;;;;;;;;;;4966051;28;20689;-72
2021/11/22 00:20:23;;;;;;;75.85;71.80;;;;;;;;;;4956068;28;20727;-71
2021/11/22 00:22:50;;;;;;;74.72;70.50;;;;;;;;;;4939890;28;20483;-73
2021/11/22 00:25:16;;;;;;;74.50;70.53;;;;;;;;;;4934074;28;20096;-72
2021/11/22 00:27:43;;;;;;;73.53;69.75;;;;;;;;;;4948204;28;20415;-72
2021/11/22 00:30:09;;;;;;;74.47;70.78;;;;;;;;;;4951888;28;20264;-72
2021/11/22 00:32:35;;;;;;;76.68;72.47;;;;;;;;;;4953770;28;20058;-72
2021/11/22 00:35:06;;;;;;;74.05;69.80;;;;;;;;;;4938873;28;20085;-72
2021/11/22 00:37:34;;;;;;;76.18;71.82;;;;;;;;;;4971102;28;20093;-71
2021/11/22 00:40:01;;;;;;;74.63;70.75;;;;;;;;;;4966705;28;20003;-73
2021/11/22 00:42:27;;;;;;;76.38;72.50;;;;;;;;;;4970592;28;20042;-73
2021/11/22 00:44:53;;;;;;;76.35;72.13;;;;;;;;;;4972189;28;20502;-73
2021/11/22 00:47:19;;;;;;;76.05;72.28;;;;;;;;;;4967367;28;20030;-73
2021/11/22 00:49:47;;;;;;;72.00;68.15;;;;;;;;;;4976661;28;20050;-72
2021/11/22 00:52:13;;;;;;;76.20;71.95;;;;;;;;;;4982507;28;20078;-73
2021/11/22 00:54:39;;;;;;;74.97;70.95;;;;;;;;;;4960250;28;20027;-73
2021/11/22 00:57:05;;;;;;;78.00;72.93;;;;;;;;;;4946829;28;20113;-72
2021/11/22 00:59:32;;;;;;;72.53;68.25;;;;;;;;;;4961834;28;20039;-73
2021/11/22 01:01:58;;;;;;;74.55;70.22;;;;;;;;;;4967351;28;20029;-73
2021/11/22 01:04:24;;;;;;;75.38;70.90;;;;;;;;;;4964196;28;20023;-72
2021/11/22 01:06:50;;;;;;;74.68;70.53;;;;;;;;;;4975088;28;20445;-72
2021/11/22 01:09:16;;;;;;;75.47;71.28;;;;;;;;;;4963102;28;20023;-73
2021/11/22 01:11:42;;;;;;;73.22;69.30;;;;;;;;;;4962974;28;20035;-72
2021/11/22 01:14:09;;;;;;;76.53;72.25;;;;;;;;;;4963641;28;20027;-73
2021/11/22 01:16:35;;;;;;;74.38;70.50;;;;;;;;;;4960613;28;20026;-73
2021/11/22 01:19:03;;;;;;;78.97;74.68;;;;;;;;;;4965022;28;20030;-72
2021/11/22 01:21:29;;;;;;;73.60;69.70;;;;;;;;;;4972583;28;20122;-73
2021/11/22 01:23:55;;;;;;;72.40;68.35;;;;;;;;;;4947795;28;20019;-73
2021/11/22 01:26:21;;;;;;;72.75;68.35;;;;;;;;;;4962622;28;20037;-73
2021/11/22 01:28:47;;;;;;;73.38;69.30;;;;;;;;;;4964002;28;20062;-72
2021/11/22 01:31:14;;;;;;;73.88;69.45;;;;;;;;;;4971230;28;20039;-73
2021/11/22 01:33:40;;;;;;;73.65;69.78;;;;;;;;;;4979725;28;20035;-72
2021/11/22 01:36:06;;;;;;;75.07;71.15;;;;;;;;;;4967721;28;21327;-73
2021/11/22 01:38:33;;;;;;;74.93;70.43;;;;;;;;;;4975414;28;20039;-73
2021/11/22 01:41:01;;;;;;;72.05;68.00;;;;;;;;;;4970376;28;20015;-73
2021/11/22 01:43:27;;;;;;;75.60;71.25;;;;;;;;;;4971906;28;20081;-73
2021/11/22 01:45:53;;;;;;;76.05;72.45;;;;;;;;;;4973912;28;20034;-73
2021/11/22 01:48:19;;;;;;;75.13;70.88;;;;;;;;;;4968807;28;20035;-73
2021/11/22 01:50:47;;;;;;;75.30;71.05;;;;;;;;;;4970520;28;20030;-70
2021/11/22 01:53:15;;;;;;;74.28;70.47;;;;;;;;;;4977448;28;20035;-73
2021/11/22 01:55:41;;;;;;;73.32;69.72;;;;;;;;;;4968653;28;20026;-72
2021/11/22 01:58:07;;;;;;;76.05;72.03;;;;;;;;;;4969187;28;20112;-73
2021/11/22 02:00:36;;;;;;;74.50;70.60;;;;;;;;;;4971423;28;20038;-72
2021/11/22 02:03:03;;;;;;;77.40;71.65;;;;;;;;;;4969322;28;20034;-72
2021/11/22 02:05:29;;;;;;;76.25;71.88;;;;;;;;;;4972510;28;20061;-72
2021/11/22 02:07:55;;;;;;;76.63;72.43;;;;;;;;;;4979370;28;20332;-72
2021/11/22 02:10:21;;;;;;;74.43;70.30;;;;;;;;;;4971032;28;20039;-72
2021/11/22 02:12:48;;;;;;;77.32;73.10;;;;;;;;;;4967312;28;21051;-72
2021/11/22 02:15:14;;;;;;;75.75;71.72;;;;;;;;;;4972257;28;20035;-72
2021/11/22 02:17:42;;;;;;;78.03;74.00;;;;;;;;;;4956297;28;20030;-72
2021/11/22 02:20:16;;;;;;;75.00;70.97;;;;;;;;;;4966625;28;20042;-72
2021/11/22 02:22:46;;;;;;;76.20;71.97;;;;;;;;;;4959550;28;20121;-70
2021/11/22 02:25:14;;;;;;;73.90;69.53;;;;;;;;;;4971214;28;20031;-73
2021/11/22 02:27:41;;;;;;;75.93;71.82;;;;;;;;;;4958547;28;20042;-70
2021/11/22 02:30:09;;;;;;;70.70;66.60;;;;;;;;;;4985346;28;20022;-71
2021/11/22 02:32:39;;;;;;;71.82;67.90;;;;;;;;;;4964786;28;20081;-72
2021/11/22 02:35:06;;;;;;;73.70;69.63;;;;;;;;;;4969189;28;20102;-71
2021/11/22 02:37:32;;;;;;;75.50;71.68;;;;;;;;;;4967026;28;20110;-72
2021/11/22 02:39:58;;;;;;;76.50;72.57;;;;;;;;;;4976431;28;20023;-72
2021/11/22 02:42:29;;;;;;;75.60;70.97;;;;;;;;;;4948206;28;20546;-72
2021/11/22 02:44:57;;;;;;;71.20;66.97;;;;;;;;;;4970726;28;20027;-72
2021/11/22 02:47:23;;;;;;;72.63;68.25;;;;;;;;;;4955797;28;20046;-72
2021/11/22 02:49:49;;;;;;;73.93;69.90;;;;;;;;;;4967244;28;20027;-71
2021/11/22 02:52:15;;;;;;;70.90;66.95;;;;;;;;;;4969513;28;20113;-72
2021/11/22 02:54:42;;;;;;;72.53;68.32;;;;;;;;;;4972527;28;20114;-72
2021/11/22 02:57:09;;;;;;;73.82;69.95;;;;;;;;;;4973968;28;20387;-72
2021/11/22 02:59:42;;;;;;;68.40;64.50;;;;;;;;;;4968082;28;20023;-71
2021/11/22 03:02:08;;;;;;;70.53;66.68;;;;;;;;;;4970115;28;20046;-72
2021/11/22 03:04:35;;;;;;;72.82;68.57;;;;;;;;;;4964602;28;20028;-71
2021/11/22 03:07:02;;;;;;;71.30;67.47;;;;;;;;;;4969545;28;20050;-71
2021/11/22 03:09:28;;;;;;;71.53;67.97;;;;;;;;;;4969534;28;20038;-72
2021/11/22 03:11:55;;;;;;;73.28;69.50;;;;;;;;;;4975992;28;20019;-71
2021/11/22 03:14:21;;;;;;;73.75;69.28;;;;;;;;;;4955596;28;20042;-72
2021/11/22 03:16:48;;;;;;;69.28;65.75;;;;;;;;;;4971904;28;20055;-72
2021/11/22 03:19:14;;;;;;;65.93;62.30;;;;;;;;;;4968058;28;20415;-71
2021/11/22 03:21:41;;;;;;;70.47;66.78;;;;;;;;;;4969983;28;20023;-71
2021/11/22 03:24:08;;;;;;;69.05;65.43;;;;;;;;;;4965771;28;20041;-72
2021/11/22 03:26:34;;;;;;;69.35;65.80;;;;;;;;;;4970169;28;20035;-72
2021/11/22 03:29:00;;;;;;;67.35;64.03;;;;;;;;;;4971156;28;20107;-71
2021/11/22 03:31:26;;;;;;;65.85;62.47;;;;;;;;;;4975383;28;20117;-72
2021/11/22 03:33:52;;;;;;;70.47;67.07;;;;;;;;;;4960447;28;20037;-72
2021/11/22 03:36:18;;;;;;;68.10;64.63;;;;;;;;;;4975760;28;20046;-72
2021/11/22 03:38:44;;;;;;;66.25;62.53;;;;;;;;;;4970132;28;20023;-72
2021/11/22 03:41:15;;;;;;;68.43;64.63;;;;;;;;;;4972935;28;20034;-72
2021/11/22 03:43:48;;;;;;;71.60;67.10;;;;;;;;;;4970364;28;20082;-76
2021/11/22 03:46:15;;;;;;;66.28;62.28;;;;;;;;;;4974144;28;20102;-72
2021/11/22 03:48:42;;;;;;;64.15;60.72;;;;;;;;;;4972974;28;20031;-72
2021/11/22 03:51:08;;;;;;;60.50;57.10;;;;;;;;;;4975111;28;20134;-72
2021/11/22 03:53:34;;;;;;;66.72;63.03;;;;;;;;;;4968700;28;20126;-73
2021/11/22 03:56:00;;;;;;;60.75;57.33;;;;;;;;;;4972584;28;20027;-72
2021/11/22 03:58:26;;;;;;;63.08;59.80;;;;;;;;;;4973776;28;20459;-72
2021/11/22 04:00:53;;;;;;;59.80;56.35;;;;;;;;;;4970079;28;20401;-72
2021/11/22 04:03:19;;;;;;;62.45;59.28;;;;;;;;;;4970244;28;20070;-73
2021/11/22 04:05:45;;;;;;;63.40;59.67;;;;;;;;;;4973043;28;20235;-72
2021/11/22 04:08:11;;;;;;;61.22;58.25;;;;;;;;;;4971450;28;20105;-72
2021/11/22 04:10:38;;;;;;;61.70;58.50;;;;;;;;;;4971110;28;20377;-70
2021/11/22 04:13:04;;;;;;;60.45;57.25;;;;;;;;;;4971105;28;20027;-71
2021/11/22 04:15:30;;;;;;;57.47;54.22;;;;;;;;;;4954949;28;20022;-71
2021/11/22 04:17:57;;;;;;;61.25;57.50;;;;;;;;;;4976392;28;20038;-73
2021/11/22 04:20:23;;;;;;;58.97;55.53;;;;;;;;;;4972807;28;20027;-72
2021/11/22 04:22:49;;;;;;;60.42;57.10;;;;;;;;;;4964585;28;20018;-72
2021/11/22 04:25:15;;;;;;;62.35;58.78;;;;;;;;;;4969999;28;20030;-72
2021/11/22 04:27:41;;;;;;;64.28;60.88;;;;;;;;;;4969986;28;20496;-71
2021/11/22 04:30:09;;;;;;;61.65;58.83;;;;;;;;;;4971311;28;20506;-71
2021/11/22 04:32:35;;;;;;;66.20;62.58;;;;;;;;;;4970564;28;20171;-71
2021/11/22 04:35:03;;;;;;;62.28;58.92;;;;;;;;;;4954948;28;20034;-70
2021/11/22 04:37:29;;;;;;;62.70;58.70;;;;;;;;;;4977971;28;20035;-72
2021/11/22 04:39:56;;;;;;;62.70;58.90;;;;;;;;;;4970995;28;20027;-72
2021/11/22 04:42:22;;;;;;;64.53;60.97;;;;;;;;;;4968809;28;20405;-71
2021/11/22 04:44:48;;;;;;;64.15;60.78;;;;;;;;;;4967199;28;20043;-72
2021/11/22 04:47:15;;;;;;;64.70;61.13;;;;;;;;;;4967410;28;20560;-70
2021/11/22 04:49:41;;;;;;;64.72;61.40;;;;;;;;;;4968790;28;20037;-72
2021/11/22 04:52:08;;;;;;;65.10;61.38;;;;;;;;;;4977638;28;20047;-71
2021/11/22 04:54:35;;;;;;;63.00;59.75;;;;;;;;;;4969890;28;20030;-73
2021/11/22 04:57:02;;;;;;;64.88;60.85;;;;;;;;;;4960648;28;20428;-71
2021/11/22 04:59:28;;;;;;;64.50;60.90;;;;;;;;;;4966159;28;20026;-70
2021/11/22 05:01:54;;;;;;;63.08;59.58;;;;;;;;;;4971385;28;20027;-72
2021/11/22 05:04:20;;;;;;;66.10;62.67;;;;;;;;;;4980680;28;20023;-72
2021/11/22 05:06:47;;;;;;;62.08;58.78;;;;;;;;;;4971911;28;20042;-72
2021/11/22 05:09:13;;;;;;;62.80;59.70;;;;;;;;;;4963545;28;20049;-72
2021/11/22 05:11:41;;;;;;;66.05;62.65;;;;;;;;;;4969201;28;20069;-72
2021/11/22 05:14:08;;;;;;;65.68;62.15;;;;;;;;;;4966720;28;20035;-72
2021/11/22 05:16:34;;;;;;;66.35;63.15;;;;;;;;;;4963334;28;20510;-71
2021/11/22 05:19:00;;;;;;;63.17;60.03;;;;;;;;;;4963843;28;20054;-71
2021/11/22 05:21:29;;;;;;;62.80;59.58;;;;;;;;;;4967261;28;20037;-72
2021/11/22 05:23:55;;;;;;;63.33;60.33;;;;;;;;;;4972590;28;20023;-71
2021/11/22 05:26:22;;;;;;;65.97;62.25;;;;;;;;;;4963873;28;20106;-71
2021/11/22 05:28:48;;;;;;;61.28;57.90;;;;;;;;;;4971666;28;20022;-71
2021/11/22 05:31:14;;;;;;;64.55;60.85;;;;;;;;;;4970714;28;20399;-72
2021/11/22 05:33:40;;;;;;;61.65;58.28;;;;;;;;;;4973790;28;20420;-71
2021/11/22 05:36:06;;;;;;;63.30;59.92;;;;;;;;;;4970137;28;20488;-72
2021/11/22 05:38:32;;;;;;;65.40;61.85;;;;;;;;;;4973699;28;20515;-71
2021/11/22 05:40:58;;;;;;;60.20;56.67;;;;;;;;;;4976791;28;20038;-72
2021/11/22 05:43:24;;;;;;;61.92;58.88;;;;;;;;;;4955029;28;20038;-71
2021/11/22 05:45:50;;;;;;;61.55;58.13;;;;;;;;;;4968434;28;20033;-71
2021/11/22 05:48:17;;;;;;;61.08;58.13;;;;;;;;;;4961699;28;20071;-71
2021/11/22 05:50:44;;;;;;;62.03;58.60;;;;;;;;;;4970528;28;20030;-73
2021/11/22 05:53:10;;;;;;;61.95;58.38;;;;;;;;;;4969881;28;20554;-71
2021/11/22 05:55:39;;;;;;;60.92;57.47;;;;;;;;;;4968312;28;20511;-71
2021/11/22 05:58:07;;;;;;;59.85;56.75;;;;;;;;;;4967484;28;20019;-72
2021/11/22 06:00:34;;;;;;;65.70;62.25;;;;;;;;;;4949263;28;20023;-71
2021/11/22 06:03:00;;;;;;;61.22;58.20;;;;;;;;;;4948992;28;20078;-71
2021/11/22 06:05:26;;;;;;;61.28;57.85;;;;;;;;;;4968743;28;20045;-71
2021/11/22 06:07:53;;;;;;;61.05;57.28;;;;;;;;;;4965877;28;20105;-72
2021/11/22 06:10:19;;;;;;;59.20;56.10;;;;;;;;;;4970232;28;20517;-70
2021/11/22 06:12:45;;;;;;;61.08;58.28;;;;;;;;;;4966375;28;20043;-71
2021/11/22 06:15:11;;;;;;;62.53;59.33;;;;;;;;;;4950667;28;20573;-72
2021/11/22 06:17:37;;;;;;;65.43;61.60;;;;;;;;;;4966987;28;20022;-70
2021/11/22 06:20:04;;;;;;;62.65;59.38;;;;;;;;;;4969615;28;20031;-71
2021/11/22 06:22:31;;;;;;;63.72;60.67;;;;;;;;;;4968443;28;20019;-71
2021/11/22 06:24:57;;;;;;;63.88;60.22;;;;;;;;;;4949999;28;20167;-71
2021/11/22 06:27:24;;;;;;;59.95;57.00;;;;;;;;;;4982000;23;20151;-71
2021/11/22 06:29:51;;;;;;;64.57;61.45;;;;;;;;;;4959673;28;20038;-70
2021/11/22 06:32:17;;;;;;;66.30;62.95;;;;;;;;;;4984075;28;20058;-71
2021/11/22 06:34:43;;;;;;;63.75;60.30;;;;;;;;;;4971189;28;20295;-71
2021/11/22 06:37:10;;;;;;;63.67;60.42;;;;;;;;;;4950214;28;20035;-71
2021/11/22 06:39:37;;;;;;;57.67;54.60;;;;;;;;;;4967015;28;20035;-72
2021/11/22 06:42:03;;;;;;;59.40;56.15;;;;;;;;;;4970575;28;20273;-71
2021/11/22 06:44:29;;;;;;;63.92;60.97;;;;;;;;;;4970341;28;20050;-71
2021/11/22 06:46:55;;;;;;;66.93;63.65;;;;;;;;;;4948965;28;20454;-72
2021/11/22 06:49:21;;;;;;;68.72;65.30;;;;;;;;;;4949228;28;20062;-71
2021/11/22 06:51:48;;;;;;;69.85;66.45;;;;;;;;;;4973396;28;20027;-71
2021/11/22 06:56:50;;;;;;;66.95;63.75;;;;;;;;;;2819741;23;20060;-70
2021/11/22 07:01:52;;;;;;;57.95;54.78;;;;;;;;;;4559481;23;20050;-72
2021/11/22 07:04:18;;;;;;;67.05;63.85;;;;;;;;;;4993516;28;20084;-73
2021/11/22 07:06:44;;;;;;;70.10;66.60;;;;;;;;;;4992371;28;20029;-73
2021/11/22 07:09:10;;;;;;;65.20;62.20;;;;;;;;;;4990490;28;20018;-72
2021/11/22 07:11:37;;;;;;;65.38;61.88;;;;;;;;;;4980700;28;20114;-73
2021/11/22 07:14:04;;;;;;;65.88;62.08;;;;;;;;;;4995522;28;20022;-73
2021/11/22 07:16:30;;;;;;;70.63;67.00;;;;;;;;;;5000443;28;20041;-73
2021/11/22 07:18:56;;;;;;;59.85;56.80;;;;;;;;;;4993315;28;20029;-73
2021/11/22 07:21:23;;;;;;;57.22;53.55;;;;;;;;;;4992013;28;20077;-72
2021/11/22 07:23:49;;;;;;;58.85;55.70;;;;;;;;;;4989246;28;20064;-72
2021/11/22 07:26:16;;;;;;;57.42;53.83;;;;;;;;;;4987643;28;20132;-73
2021/11/22 07:28:42;;;;;;;56.85;53.92;;;;;;;;;;4984918;28;20515;-73
2021/11/22 07:31:08;;;;;;;60.22;56.53;;;;;;;;;;4989667;28;20149;-73
2021/11/22 07:33:34;;;;;;;58.55;55.30;;;;;;;;;;4987992;28;20579;-73
2021/11/22 07:36:00;;;;;;;59.83;56.88;;;;;;;;;;4972207;28;20416;-73
2021/11/22 07:38:26;;;;;;;55.78;52.88;;;;;;;;;;4989177;28;20426;-73
2021/11/22 07:40:53;;;;;;;54.97;51.35;;;;;;;;;;4976262;28;20026;-73
2021/11/22 07:43:19;;;;;;;60.13;56.97;;;;;;;;;;4983012;28;20064;-73
2021/11/22 07:45:45;;;;;;;59.92;56.67;;;;;;;;;;4988374;28;20400;-73
2021/11/22 07:48:12;;;;;;;60.45;57.25;;;;;;;;;;4991034;28;20046;-73
2021/11/22 07:50:38;;;;;;;54.13;51.53;;;;;;;;;;4996930;28;20069;-74
2021/11/22 07:53:04;;;;;;;52.95;49.90;;;;;;;;;;4996090;28;20069;-74
2021/11/22 07:55:31;;;;;;;56.83;53.60;;;;;;;;;;4993561;28;20038;-73
2021/11/22 07:57:57;;;;;;;57.17;53.78;;;;;;;;;;4995413;28;20517;-73
2021/11/22 08:00:24;;;;;;;55.83;52.78;;;;;;;;;;4993223;28;20050;-73
2021/11/22 08:02:50;;;;;;;54.60;51.90;;;;;;;;;;4990772;28;20033;-73
2021/11/22 08:05:17;;;;;;;57.92;54.65;;;;;;;;;;4983112;28;20033;-72
2021/11/22 08:07:43;;;;;;;54.33;51.17;;;;;;;;;;4992713;28;20383;-72
2021/11/22 08:12:50;;;;;;;59.05;55.85;;;;;;;;;;4991555;28;20447;-73
2021/11/22 08:15:16;;;;;;;60.10;56.97;;;;;;;;;;4996017;28;20535;-73
2021/11/22 08:17:44;;;;;;;59.78;56.10;;;;;;;;;;4993165;28;20269;-72
2021/11/22 08:20:12;;;;;;;56.45;53.53;;;;;;;;;;4995054;28;20023;-73
2021/11/22 08:22:38;;;;;;;54.63;51.58;;;;;;;;;;4972695;28;20310;-72
2021/11/22 08:25:08;;;;;;;61.10;57.88;;;;;;;;;;4991775;28;20022;-72
2021/11/22 08:27:34;;;;;;;55.97;52.67;;;;;;;;;;4986602;28;20025;-72
2021/11/22 08:30:03;;;;;;;58.15;54.75;;;;;;;;;;4985432;28;20022;-72
2021/11/22 08:32:29;;;;;;;60.25;57.00;;;;;;;;;;4996768;28;20034;-73
2021/11/22 08:34:55;;;;;;;56.80;53.88;;;;;;;;;;4986377;28;20480;-72
2021/11/22 08:37:21;;;;;;;55.38;52.78;;;;;;;;;;4994418;28;20033;-72
2021/11/22 08:39:47;;;;;;;55.70;52.58;;;;;;;;;;4989710;28;20030;-72
2021/11/22 08:42:13;;;;;;;56.17;53.25;;;;;;;;;;4990948;28;20038;-72
2021/11/22 08:44:40;;;;;;;56.42;52.35;;;;;;;;;;4967772;28;20408;-73
2021/11/22 08:47:06;;;;;;;57.75;54.60;;;;;;;;;;4991809;28;20018;-73
2021/11/22 08:49:33;;;;;;;53.15;50.08;;;;;;;;;;4985634;28;20133;-72
2021/11/22 08:51:59;;;;;;;50.05;47.40;;;;;;;;;;4977045;28;20038;-73
2021/11/22 08:54:25;;;;;;;58.47;55.67;;;;;;;;;;5000057;28;20523;-72
2021/11/22 08:56:52;;;;;;;58.08;55.08;;;;;;;;;;4991078;28;20034;-73
2021/11/22 08:59:18;;;;;;;54.35;51.08;;;;;;;;;;4988847;28;20072;-73
2021/11/22 09:01:44;;;;;;;54.33;51.47;;;;;;;;;;4963217;28;20626;-73
2021/11/22 09:04:10;;;;;;;53.55;50.60;;;;;;;;;;4969069;28;20019;-73
2021/11/22 09:06:36;;;;;;;49.03;46.10;;;;;;;;;;4974720;28;20027;-74
2021/11/22 09:09:06;;;;;;;50.85;47.30;;;;;;;;;;4969416;28;20037;-73
2021/11/22 09:11:32;;;;;;;50.90;48.17;;;;;;;;;;4984052;28;20049;-73
2021/11/22 09:13:58;;;;;;;54.50;51.60;;;;;;;;;;4971390;28;20512;-73
2021/11/22 09:16:28;;;;;;;50.83;47.85;;;;;;;;;;4966888;28;20022;-73
2021/11/22 09:18:57;;;;;;;49.50;46.95;;;;;;;;;;4965847;28;20033;-74
2021/11/22 09:21:23;;;;;;;47.88;45.50;;;;;;;;;;4967840;28;20031;-73
2021/11/22 09:23:50;;;;;;;50.38;46.90;;;;;;;;;;4966548;28;20509;-74
2021/11/22 09:26:16;;;;;;;50.00;47.45;;;;;;;;;;4966718;28;20034;-73
2021/11/22 09:28:43;;;;;;;54.75;51.83;;;;;;;;;;4964766;28;20023;-73
2021/11/22 09:31:09;;;;;;;49.80;47.40;;;;;;;;;;4968334;28;20502;-74
2021/11/22 09:33:35;;;;;;;51.75;48.92;;;;;;;;;;4964551;28;20031;-74
2021/11/22 09:36:01;;;;;;;51.42;48.45;;;;;;;;;;4966539;28;20038;-73
2021/11/22 09:38:27;;;;;;;45.78;43.25;;;;;;;;;;4963011;28;20089;-73
2021/11/22 09:40:54;;;;;;;42.75;40.25;;;;;;;;;;4964196;28;20406;-73
2021/11/22 09:43:21;;;;;;;44.47;41.95;;;;;;;;;;4968538;28;20624;-73
2021/11/22 09:45:47;;;;;;;47.38;45.00;;;;;;;;;;4966243;28;20067;-71
2021/11/22 09:48:14;;;;;;;43.85;41.42;;;;;;;;;;4967676;28;20030;-72
2021/11/22 09:50:41;;;;;;;45.75;43.35;;;;;;;;;;4967503;28;20035;-73
2021/11/22 09:53:07;;;;;;;46.05;43.35;;;;;;;;;;4967489;28;20026;-73
2021/11/22 09:55:34;;;;;;;42.42;40.22;;;;;;;;;;4967108;28;20027;-72
2021/11/22 09:58:02;;;;;;;44.35;41.83;;;;;;;;;;4967170;28;20106;-71
2021/11/22 10:00:34;;;;;;;41.97;39.88;;;;;;;;;;4973537;28;20319;-73
2021/11/22 10:03:01;;;;;;;43.17;40.63;;;;;;;;;;4988034;28;20488;-73
2021/11/22 10:05:33;;;;;;;45.03;42.78;;;;;;;;;;4985449;28;20042;-73
2021/11/22 10:08:10;;;;;;;42.80;40.40;;;;;;;;;;4984005;28;20033;-73
2021/11/22 10:10:38;;;;;;;43.25;40.17;;;;;;;;;;4986015;28;20041;-73
2021/11/22 10:13:20;;;;;;;45.15;42.38;;;;;;;;;;4986564;28;20412;-74
2021/11/22 10:15:47;;;;;;;46.33;43.28;;;;;;;;;;4984368;28;20504;-73
2021/11/22 10:18:23;;;;;;;41.70;39.42;;;;;;;;;;4983745;28;20516;-72
2021/11/22 10:20:50;;;;;;;41.95;39.13;;;;;;;;;;4969649;28;20026;-73
2021/11/22 10:23:22;;;;;;;41.60;38.75;;;;;;;;;;4990507;28;20509;-73
2021/11/22 10:25:49;;;;;;;41.75;39.60;;;;;;;;;;4987549;28;20089;-73
2021/11/22 10:28:21;;;;;;;40.95;38.42;;;;;;;;;;4963643;28;20497;-73
2021/11/22 10:30:47;;;;;;;51.65;48.17;;;;;;;;;;4967407;28;20481;-74
2021/11/22 10:33:14;;;;;;;47.38;44.67;;;;;;;;;;4968766;28;20487;-73
2021/11/22 10:35:40;;;;;;;58.83;53.28;;;;;;;;;;4986570;28;20073;-71
2021/11/22 10:38:14;;;;;;;40.70;38.22;;;;;;;;;;4982333;28;20030;-73
2021/11/22 10:40:41;;;;;;;41.92;39.42;;;;;;;;;;4984632;28;20489;-73
2021/11/22 10:43:08;;;;;;;44.38;42.17;;;;;;;;;;4966883;28;20040;-73
2021/11/22 10:45:37;;;;;;;43.60;41.50;;;;;;;;;;4985641;28;20049;-73
2021/11/22 10:48:11;;;;;;;43.22;40.78;;;;;;;;;;4966631;28;20045;-74
2021/11/22 10:50:47;;;;;;;43.83;41.45;;;;;;;;;;4983065;28;20026;-73
2021/11/22 10:53:13;;;;;;;42.75;40.42;;;;;;;;;;4984528;28;20034;-73
2021/11/22 10:55:47;;;;;;;42.80;40.33;;;;;;;;;;4984974;28;20045;-73
2021/11/22 10:58:31;;;;;;;38.92;36.63;;;;;;;;;;4981394;28;20091;-73
2021/11/22 11:00:57;;;;;;;42.00;39.83;;;;;;;;;;4984442;28;20035;-72
2021/11/22 11:03:27;;;;;;;43.03;39.92;;;;;;;;;;4985699;28;20081;-73
2021/11/22 11:05:57;;;;;;;40.92;38.50;;;;;;;;;;4983764;28;20034;-72
2021/11/22 11:08:28;;;;;;;40.35;38.17;;;;;;;;;;4984866;28;20022;-73
2021/11/22 11:11:07;;;;;;;40.55;38.35;;;;;;;;;;4990289;28;20053;-73
2021/11/22 11:13:50;;;;;;;40.28;38.28;;;;;;;;;;4988590;28;20045;-73
2021/11/22 11:16:16;;;;;;;41.17;38.88;;;;;;;;;;4970278;28;20068;-74
2021/11/22 11:18:55;;;;;;;38.88;36.80;;;;;;;;;;4970103;28;20096;-73
2021/11/22 11:21:21;;;;;;;40.28;37.78;;;;;;;;;;4989599;28;20266;-73
2021/11/22 11:23:47;;;;;;;36.70;34.67;;;;;;;;;;4988771;28;20105;-73
2021/11/22 11:26:13;;;;;;;37.42;35.65;;;;;;;;;;4987223;28;20025;-73
2021/11/22 11:28:41;;;;;;;42.75;40.25;;;;;;;;;;4967069;28;20034;-74
2021/11/22 11:31:07;;;;;;;40.63;38.45;;;;;;;;;;4970324;28;20382;-72
2021/11/22 11:33:33;;;;;;;39.72;37.55;;;;;;;;;;5001404;28;20030;-73
2021/11/22 11:36:03;;;;;;;39.38;37.08;;;;;;;;;;4989951;28;20109;-73
2021/11/22 11:38:45;;;;;;;36.45;34.35;;;;;;;;;;4999448;28;20061;-73
2021/11/22 11:41:17;;;;;;;36.08;34.35;;;;;;;;;;4991594;28;20375;-73
2021/11/22 11:44:09;;;;;;;38.95;36.47;;;;;;;;;;4992231;28;20085;-74
2021/11/22 11:46:35;;;;;;;;;;;;;;;;;;4976469;28;20038;-73
2021/11/22 11:49:01;;;;;;;34.30;32.30;;;;;;;;;;5000225;28;19971;-73
2021/11/22 11:51:39;;;;;;;35.28;33.53;;;;;;;;;;4975370;28;20026;-73
2021/11/22 11:54:10;;;;;;;33.97;31.95;;;;;;;;;;4987780;28;20022;-73
2021/11/22 11:56:44;;;;;;;38.57;36.20;;;;;;;;;;5004077;28;20503;-74
2021/11/22 11:59:13;;;;;;;37.38;35.47;;;;;;;;;;4987553;28;20581;-73
2021/11/22 12:01:54;;;;;;;39.95;37.80;;;;;;;;;;4994041;28;20078;-73
2021/11/22 12:04:21;;;;;;;41.40;38.67;;;;;;;;;;4996637;28;20033;-71
2021/11/22 12:07:00;;;;;;;42.13;39.67;;;;;;;;;;4976307;28;20049;-70
2021/11/22 12:09:31;;;;;;;40.03;38.03;;;;;;;;;;4987967;28;20038;-71
2021/11/22 12:12:01;;;;;;;43.42;41.00;;;;;;;;;;4989789;28;20453;-71
2021/11/22 12:14:46;;;;;;;37.35;35.53;;;;;;;;;;4992716;28;20076;-71
2021/11/22 12:17:12;;;;;;;39.70;37.53;;;;;;;;;;4988888;28;20034;-72
2021/11/22 12:19:44;;;;;;;43.13;40.72;;;;;;;;;;4988063;28;20018;-71
2021/11/22 12:22:14;;;;;;;39.17;37.03;;;;;;;;;;4997956;28;20451;-71
2021/11/22 12:24:41;;;;;;;41.30;38.97;;;;;;;;;;4987353;28;20026;-71
2021/11/22 12:27:26;;;;;;;45.20;42.40;;;;;;;;;;4989211;28;20366;-71
2021/11/22 12:29:52;;;;;;;46.50;43.95;;;;;;;;;;4966134;28;20027;-71
2021/11/22 12:32:24;;;;;;;44.20;41.80;;;;;;;;;;4985037;28;20038;-71
2021/11/22 12:34:56;;;;;;;45.28;42.53;;;;;;;;;;4995431;28;20045;-71
2021/11/22 12:37:26;;;;;;;44.33;41.53;;;;;;;;;;4983221;28;20038;-71
2021/11/22 12:39:53;;;;;;;42.90;40.40;;;;;;;;;;4983687;28;20019;-71
2021/11/22 12:42:20;;;;;;;41.65;39.28;;;;;;;;;;4996279;28;20038;-71
2021/11/22 12:45:00;;;;;;;42.33;40.13;;;;;;;;;;4994336;28;20033;-71
2021/11/22 12:47:28;;;;;;;44.15;41.17;;;;;;;;;;4985181;28;20027;-71
2021/11/22 12:50:07;;;;;;;48.47;45.45;;;;;;;;;;4978690;28;20520;-71
2021/11/22 12:52:35;;;;;;;46.65;44.10;;;;;;;;;;4991386;28;20046;-71
2021/11/22 12:55:04;;;;;;;45.53;42.83;;;;;;;;;;4980694;28;20082;-71
2021/11/22 12:57:30;;;;;;;44.13;41.97;;;;;;;;;;4996997;28;20110;-71
2021/11/22 13:00:08;;;;;;;47.88;44.95;;;;;;;;;;5057581;23;20054;-73
2021/11/22 13:02:47;;;;;;;41.40;38.95;;;;;;;;;;4970455;28;20038;-73
2021/11/22 13:05:31;;;;;;;44.38;41.88;;;;;;;;;;4985855;28;20044;-73
2021/11/22 13:07:57;;;;;;;43.40;40.88;;;;;;;;;;4968008;28;20031;-73
2021/11/22 13:10:35;;;;;;;41.00;38.83;;;;;;;;;;4966220;28;20097;-73
2021/11/22 13:13:10;;;;;;;44.95;42.70;;;;;;;;;;4977373;28;20054;-73
2021/11/22 13:15:53;;;;;;;42.33;40.05;;;;;;;;;;4992270;28;20038;-73
2021/11/22 13:18:20;;;;;;;44.45;42.00;;;;;;;;;;4966136;28;20490;-73
2021/11/22 13:20:46;;;;;;;39.63;37.45;;;;;;;;;;4967569;28;20035;-73
2021/11/22 13:23:12;;;;;;;38.38;36.25;;;;;;;;;;4969674;28;20058;-73
2021/11/22 13:25:38;;;;;;;41.63;39.08;;;;;;;;;;4974605;28;20070;-73
2021/11/22 13:28:08;;;;;;;35.33;33.15;;;;;;;;;;4966043;28;20481;-73
2021/11/22 13:30:35;;;;;;;35.20;33.08;;;;;;;;;;4967723;28;20070;-72
2021/11/22 13:33:02;;;;;;;34.60;32.10;;;;;;;;;;4973293;28;20049;-72
2021/11/22 13:35:28;;;;;;;41.10;39.03;;;;;;;;;;4968888;28;20031;-73
2021/11/22 13:38:11;;;;;;;35.95;34.17;;;;;;;;;;4973129;28;20358;-73
2021/11/22 13:40:37;;;;;;;34.58;32.50;;;;;;;;;;4971676;28;20023;-73
2021/11/22 13:43:08;;;;;;;36.75;34.85;;;;;;;;;;4984573;28;20033;-72
2021/11/22 13:45:34;;;;;;;35.27;33.27;;;;;;;;;;4963560;28;20073;-73
2021/11/22 13:48:00;;;;;;;36.60;34.25;;;;;;;;;;4966339;28;20276;-73
2021/11/22 13:50:27;;;;;;;34.13;32.22;;;;;;;;;;4977681;28;20038;-73
2021/11/22 13:52:54;;;;;;;36.03;33.63;;;;;;;;;;4981631;28;20030;-72
2021/11/22 13:55:20;;;;;;;36.05;34.25;;;;;;;;;;4974620;28;20105;-73
2021/11/22 13:57:46;;;;;;;36.80;34.67;;;;;;;;;;4965323;28;20065;-73
2021/11/22 14:00:15;;;;;;;41.75;39.75;;;;;;;;;;4977105;28;20038;-73
2021/11/22 14:02:41;;;;;;;38.30;36.17;;;;;;;;;;4967699;28;20018;-73
2021/11/22 14:05:07;;;;;;;40.53;37.78;;;;;;;;;;4976599;28;20064;-72
2021/11/22 14:07:41;;;;;;;37.85;36.03;;;;;;;;;;4968019;28;20110;-72
2021/11/22 14:10:07;;;;;;;34.72;32.63;;;;;;;;;;4973304;28;20410;-73
2021/11/22 14:12:35;;;;;;;38.47;36.50;;;;;;;;;;4970240;28;20033;-73
2021/11/22 14:15:01;;;;;;;35.55;33.55;;;;;;;;;;4970663;28;20019;-73
2021/11/22 14:17:28;;;;;;;37.53;35.35;;;;;;;;;;4975032;28;20122;-73
2021/11/22 14:20:14;;;;;;;41.40;39.40;;;;;;;;;;4975924;28;20520;-73
2021/11/22 14:22:42;;;;;;;39.20;37.00;;;;;;;;;;4984733;28;20367;-73
2021/11/22 14:25:17;;;;;;;40.40;37.88;;;;;;;;;;4966633;28;20453;-73
2021/11/22 14:27:43;;;;;;;39.63;37.40;;;;;;;;;;4967948;28;20038;-72
2021/11/22 14:30:13;;;;;;;37.67;35.67;;;;;;;;;;4970275;28;20023;-72